createdAt,value
2018-05-21T00:00:59.488Z,15.42
2018-05-21T00:01:59.208Z,15.44
2018-05-21T00:02:59.189Z,15.33
2018-05-21T00:03:59.129Z,15.36
2018-05-21T00:04:59.081Z,15.43
2018-05-21T00:05:59.046Z,15.49
2018-05-21T00:06:59.191Z,15.49
2018-05-21T00:07:58.923Z,15.40
2018-05-21T00:08:58.888Z,15.36
2018-05-21T00:09:58.867Z,15.47
2018-05-21T00:10:58.794Z,15.39
2018-05-21T00:11:58.747Z,15.47
2018-05-21T00:12:58.896Z,15.59
2018-05-21T00:13:58.665Z,15.68
2018-05-21T00:14:58.603Z,15.67
2018-05-21T00:15:58.570Z,15.67
2018-05-21T00:16:58.508Z,15.72
2018-05-21T00:17:58.461Z,15.65
2018-05-21T00:18:58.641Z,15.64
2018-05-21T00:19:58.350Z,15.76
2018-05-21T00:20:58.321Z,15.75
2018-05-21T00:21:58.281Z,15.79
2018-05-21T00:22:58.234Z,15.77
2018-05-21T00:23:58.186Z,15.77
2018-05-21T00:24:58.322Z,15.77
2018-05-21T00:25:58.109Z,15.76
2018-05-21T00:26:58.067Z,15.86
2018-05-21T00:27:58.013Z,15.77
2018-05-21T00:28:57.950Z,15.73
2018-05-21T00:29:58.108Z,15.79
2018-05-21T00:30:57.845Z,15.79
2018-05-21T00:31:57.798Z,15.76
2018-05-21T00:32:57.737Z,15.82
2018-05-21T00:33:57.711Z,15.82
2018-05-21T00:34:57.673Z,15.79
2018-05-21T00:35:57.837Z,15.79
2018-05-21T00:36:57.569Z,15.79
2018-05-21T00:37:57.513Z,15.73
2018-05-21T00:38:57.461Z,15.79
2018-05-21T00:39:57.433Z,15.82
2018-05-21T00:40:57.359Z,15.76
2018-05-21T00:41:57.540Z,15.77
2018-05-21T00:42:57.291Z,15.75
2018-05-21T00:43:57.237Z,15.64
2018-05-21T00:44:57.200Z,15.72
2018-05-21T00:45:57.164Z,15.77
2018-05-21T00:46:57.089Z,15.79
2018-05-21T00:47:57.267Z,15.76
2018-05-21T00:48:57.006Z,15.70
2018-05-21T00:49:56.934Z,15.68
2018-05-21T00:50:56.914Z,15.64
2018-05-21T00:51:56.886Z,15.62
2018-05-21T00:52:56.791Z,15.54
2018-05-21T00:53:56.973Z,15.57
2018-05-21T00:54:56.725Z,15.62
2018-05-21T00:55:56.658Z,15.64
2018-05-21T00:56:56.616Z,15.65
2018-05-21T00:57:56.575Z,15.70
2018-05-21T00:58:56.505Z,15.57
2018-05-21T00:59:56.666Z,15.61
2018-05-21T01:00:56.411Z,15.68
2018-05-21T01:01:56.376Z,15.47
2018-05-21T01:02:56.319Z,15.47
2018-05-21T01:03:56.277Z,15.43
2018-05-21T01:04:56.249Z,15.54
2018-05-21T01:05:56.398Z,15.64
2018-05-21T01:06:56.161Z,15.44
2018-05-21T01:07:56.104Z,15.42
2018-05-21T01:08:56.036Z,15.46
2018-05-21T01:09:55.995Z,15.51
2018-05-21T01:10:55.972Z,15.52
2018-05-21T01:11:56.333Z,15.51
2018-05-21T01:12:55.856Z,15.55
2018-05-21T01:13:55.823Z,15.46
2018-05-21T01:14:55.773Z,15.47
2018-05-21T01:15:55.943Z,15.42
2018-05-21T01:16:55.689Z,15.46
2018-05-21T01:17:55.809Z,15.40
2018-05-21T01:18:55.769Z,15.51
2018-05-21T01:19:55.518Z,15.37
2018-05-21T01:20:55.479Z,15.43
2018-05-21T01:21:55.623Z,15.42
2018-05-21T01:22:55.405Z,15.37
2018-05-21T01:23:55.621Z,15.43
2018-05-21T01:24:55.307Z,15.42
2018-05-21T01:25:55.273Z,15.54
2018-05-21T01:26:55.213Z,15.52
2018-05-21T01:27:55.154Z,15.52
2018-05-21T01:28:55.313Z,15.51
2018-05-21T01:29:55.261Z,15.54
2018-05-21T01:30:55.028Z,15.51
2018-05-21T01:31:54.971Z,15.43
2018-05-21T01:32:54.942Z,15.46
2018-05-21T01:33:54.874Z,15.49
2018-05-21T01:34:56.217Z,15.49
2018-05-21T01:35:55.025Z,15.54
2018-05-21T01:36:54.728Z,15.47
2018-05-21T01:37:54.662Z,15.46
2018-05-21T01:38:54.618Z,15.49
2018-05-21T01:39:54.580Z,15.51
2018-05-21T01:40:54.523Z,15.39
2018-05-21T01:41:54.687Z,15.39
2018-05-21T01:42:54.468Z,15.33
2018-05-21T01:43:54.408Z,15.37
2018-05-21T01:44:54.362Z,15.37
2018-05-21T01:45:54.504Z,15.37
2018-05-21T01:46:54.476Z,15.36
2018-05-21T01:47:54.415Z,15.33
2018-05-21T01:48:54.180Z,15.36
2018-05-21T01:49:54.313Z,15.33
2018-05-21T01:50:54.054Z,15.44
2018-05-21T01:51:54.003Z,15.44
2018-05-21T01:52:53.992Z,15.40
2018-05-21T01:53:54.101Z,15.44
2018-05-21T01:54:53.859Z,15.49
2018-05-21T01:55:53.829Z,15.49
2018-05-21T01:56:53.796Z,15.49
2018-05-21T01:57:53.921Z,15.47
2018-05-21T01:58:53.696Z,15.47
2018-05-21T01:59:54.062Z,15.47
2018-05-21T02:00:53.600Z,15.44
2018-05-21T02:01:53.539Z,15.25
2018-05-21T02:02:53.489Z,15.33
2018-05-21T02:03:53.443Z,15.24
2018-05-21T02:04:53.383Z,15.24
2018-05-21T02:05:53.541Z,15.11
2018-05-21T02:06:53.282Z,15.11
2018-05-21T02:07:53.253Z,15.04
2018-05-21T02:08:53.427Z,15.00
2018-05-21T02:09:53.144Z,15.02
2018-05-21T02:10:53.110Z,14.91
2018-05-21T02:11:53.464Z,14.88
2018-05-21T02:12:54.229Z,14.82
2018-05-21T02:13:52.958Z,14.86
2018-05-21T02:14:52.907Z,14.94
2018-05-21T02:15:52.872Z,14.86
2018-05-21T02:16:52.854Z,14.89
2018-05-21T02:17:52.979Z,14.89
2018-05-21T02:18:52.724Z,14.86
2018-05-21T02:19:52.722Z,14.92
2018-05-21T02:20:52.830Z,15.02
2018-05-21T02:21:52.571Z,15.07
2018-05-21T02:22:52.543Z,15.06
2018-05-21T02:23:52.708Z,15.17
2018-05-21T02:24:52.433Z,15.14
2018-05-21T02:25:53.585Z,15.14
2018-05-21T02:26:52.446Z,15.07
2018-05-21T02:27:52.287Z,15.18
2018-05-21T02:28:52.243Z,15.07
2018-05-21T02:29:52.608Z,15.10
2018-05-21T02:30:52.161Z,15.06
2018-05-21T02:31:52.112Z,14.89
2018-05-21T02:32:52.049Z,14.91
2018-05-21T02:33:52.008Z,14.86
2018-05-21T02:34:51.968Z,14.79
2018-05-21T02:35:52.118Z,14.73
2018-05-21T02:36:52.087Z,14.81
2018-05-21T02:37:51.827Z,14.84
2018-05-21T02:38:51.794Z,14.85
2018-05-21T02:39:51.941Z,14.82
2018-05-21T02:40:51.689Z,14.78
2018-05-21T02:41:51.820Z,14.73
2018-05-21T02:42:51.587Z,14.72
2018-05-21T02:43:51.532Z,14.70
2018-05-21T02:44:51.473Z,14.70
2018-05-21T02:45:51.667Z,14.70
2018-05-21T02:46:51.580Z,14.77
2018-05-21T02:47:51.358Z,14.70
2018-05-21T02:48:51.285Z,14.77
2018-05-21T02:49:51.273Z,14.81
2018-05-21T02:50:51.218Z,14.68
2018-05-21T02:51:51.177Z,14.58
2018-05-21T02:52:51.297Z,14.45
2018-05-21T02:53:51.060Z,14.63
2018-05-21T02:54:51.013Z,14.59
2018-05-21T02:55:50.975Z,14.51
2018-05-21T02:56:50.920Z,14.53
2018-05-21T02:57:50.854Z,14.69
2018-05-21T02:58:51.044Z,14.79
2018-05-21T02:59:51.959Z,14.70
2018-05-21T03:00:50.725Z,14.81
2018-05-21T03:01:50.687Z,14.89
2018-05-21T03:02:50.626Z,14.85
2018-05-21T03:03:50.577Z,14.79
2018-05-21T03:04:50.732Z,14.92
2018-05-21T03:05:50.491Z,14.89
2018-05-21T03:06:50.433Z,15.00
2018-05-21T03:07:50.413Z,14.99
2018-05-21T03:08:50.355Z,14.96
2018-05-21T03:09:50.291Z,15.00
2018-05-21T03:10:50.429Z,14.94
2018-05-21T03:11:51.412Z,14.84
2018-05-21T03:12:50.164Z,14.65
2018-05-21T03:13:50.117Z,14.63
2018-05-21T03:14:50.154Z,14.70
2018-05-21T03:15:50.030Z,14.72
2018-05-21T03:16:50.365Z,14.68
2018-05-21T03:17:49.898Z,14.77
2018-05-21T03:18:49.861Z,14.82
2018-05-21T03:19:49.794Z,14.79
2018-05-21T03:20:49.751Z,14.84
2018-05-21T03:21:49.924Z,14.82
2018-05-21T03:22:49.898Z,14.85
2018-05-21T03:23:49.634Z,14.91
2018-05-21T03:24:49.585Z,14.88
2018-05-21T03:25:49.746Z,15.00
2018-05-21T03:26:49.467Z,14.85
2018-05-21T03:27:49.436Z,14.82
2018-05-21T03:28:49.598Z,14.85
2018-05-21T03:29:49.326Z,14.78
2018-05-21T03:30:49.311Z,14.78
2018-05-21T03:31:49.229Z,14.88
2018-05-21T03:32:49.178Z,14.84
2018-05-21T03:33:49.159Z,14.86
2018-05-21T03:34:49.299Z,14.79
2018-05-21T03:35:49.054Z,14.84
2018-05-21T03:36:49.004Z,14.85
2018-05-21T03:37:48.951Z,14.85
2018-05-21T03:38:48.889Z,14.89
2018-05-21T03:39:48.870Z,14.91
2018-05-21T03:40:49.009Z,14.94
2018-05-21T03:41:48.744Z,14.85
2018-05-21T03:42:48.702Z,14.70
2018-05-21T03:43:48.698Z,14.72
2018-05-21T03:44:48.604Z,14.72
2018-05-21T03:45:48.586Z,14.65
2018-05-21T03:46:48.740Z,14.69
2018-05-21T03:47:48.477Z,14.66
2018-05-21T03:48:48.426Z,14.72
2018-05-21T03:49:48.567Z,14.88
2018-05-21T03:50:48.336Z,14.88
2018-05-21T03:51:48.274Z,14.99
2018-05-21T03:52:48.419Z,14.88
2018-05-21T03:53:48.201Z,14.79
2018-05-21T03:54:48.127Z,14.70
2018-05-21T03:55:48.282Z,14.70
2018-05-21T03:56:48.036Z,14.63
2018-05-21T03:57:47.998Z,14.65
2018-05-21T03:58:48.149Z,14.60
2018-05-21T03:59:47.905Z,14.77
2018-05-21T04:00:47.883Z,14.66
2018-05-21T04:01:47.811Z,14.70
2018-05-21T04:02:47.775Z,14.65
2018-05-21T04:03:47.690Z,14.70
2018-05-21T04:04:47.885Z,14.81
2018-05-21T04:05:47.596Z,14.69
2018-05-21T04:06:47.551Z,14.85
2018-05-21T04:07:47.517Z,14.79
2018-05-21T04:08:47.483Z,14.77
2018-05-21T04:09:47.435Z,14.69
2018-05-21T04:10:47.576Z,14.66
2018-05-21T04:11:47.320Z,14.62
2018-05-21T04:12:47.309Z,14.68
2018-05-21T04:13:47.235Z,14.65
2018-05-21T04:14:47.170Z,14.70
2018-05-21T04:15:47.124Z,14.70
2018-05-21T04:16:47.272Z,14.68
2018-05-21T04:17:47.030Z,14.73
2018-05-21T04:18:47.008Z,14.81
2018-05-21T04:19:46.931Z,14.79
2018-05-21T04:20:46.913Z,14.79
2018-05-21T04:21:47.048Z,14.82
2018-05-21T04:22:47.030Z,14.70
2018-05-21T04:23:46.753Z,14.70
2018-05-21T04:24:46.706Z,14.70
2018-05-21T04:25:46.647Z,14.69
2018-05-21T04:26:46.600Z,14.66
2018-05-21T04:27:46.562Z,14.68
2018-05-21T04:28:46.727Z,14.68
2018-05-21T04:29:46.464Z,14.73
2018-05-21T04:30:46.429Z,14.70
2018-05-21T04:31:46.377Z,14.55
2018-05-21T04:32:46.309Z,14.54
2018-05-21T04:33:46.298Z,14.48
2018-05-21T04:34:46.431Z,14.37
2018-05-21T04:35:46.190Z,14.50
2018-05-21T04:36:46.142Z,14.40
2018-05-21T04:37:46.083Z,14.43
2018-05-21T04:38:46.021Z,14.50
2018-05-21T04:39:45.998Z,14.47
2018-05-21T04:40:46.186Z,14.51
2018-05-21T04:41:45.886Z,14.45
2018-05-21T04:42:45.840Z,14.48
2018-05-21T04:43:45.807Z,14.59
2018-05-21T04:44:45.768Z,14.60
2018-05-21T04:45:45.700Z,14.65
2018-05-21T04:46:46.051Z,14.69
2018-05-21T04:47:45.610Z,14.66
2018-05-21T04:48:45.539Z,14.63
2018-05-21T04:49:45.493Z,14.58
2018-05-21T04:50:45.474Z,14.51
2018-05-21T04:51:45.408Z,14.63
2018-05-21T04:52:45.559Z,14.63
2018-05-21T04:53:45.301Z,14.50
2018-05-21T04:54:45.289Z,14.60
2018-05-21T04:55:45.240Z,14.55
2018-05-21T04:56:45.158Z,14.59
2018-05-21T04:57:45.119Z,14.51
2018-05-21T04:58:45.260Z,14.51
2018-05-21T04:59:45.026Z,14.44
2018-05-21T05:00:44.961Z,14.48
2018-05-21T05:01:44.935Z,14.51
2018-05-21T05:02:44.889Z,14.59
2018-05-21T05:03:44.837Z,14.51
2018-05-21T05:04:44.999Z,14.51
2018-05-21T05:05:44.744Z,14.43
2018-05-21T05:06:44.690Z,14.36
2018-05-21T05:07:44.623Z,14.35
2018-05-21T05:08:44.793Z,14.37
2018-05-21T05:09:44.550Z,14.47
2018-05-21T05:10:44.713Z,14.53
2018-05-21T05:11:44.464Z,14.47
2018-05-21T05:12:44.388Z,14.45
2018-05-21T05:13:44.348Z,14.51
2018-05-21T05:14:44.310Z,14.48
2018-05-21T05:15:44.245Z,14.40
2018-05-21T05:16:44.394Z,14.48
2018-05-21T05:17:44.150Z,14.50
2018-05-21T05:18:44.111Z,14.50
2018-05-21T05:19:44.077Z,14.47
2018-05-21T05:20:44.020Z,14.40
2018-05-21T05:21:43.989Z,14.51
2018-05-21T05:22:44.202Z,14.44
2018-05-21T05:23:43.883Z,14.35
2018-05-21T05:24:43.825Z,14.36
2018-05-21T05:25:43.787Z,14.40
2018-05-21T05:26:43.812Z,14.37
2018-05-21T05:27:43.680Z,14.36
2018-05-21T05:28:43.836Z,14.41
2018-05-21T05:29:43.577Z,14.32
2018-05-21T05:30:43.551Z,14.36
2018-05-21T05:31:43.482Z,14.41
2018-05-21T05:32:43.431Z,14.37
2018-05-21T05:33:43.412Z,14.40
2018-05-21T05:34:43.547Z,14.36
2018-05-21T05:35:43.274Z,14.35
2018-05-21T05:36:43.255Z,14.37
2018-05-21T05:37:43.209Z,14.35
2018-05-21T05:38:43.153Z,14.37
2018-05-21T05:39:43.107Z,14.35
2018-05-21T05:40:43.272Z,14.36
2018-05-21T05:41:42.995Z,14.37
2018-05-21T05:42:42.949Z,14.36
2018-05-21T05:43:42.922Z,14.41
2018-05-21T05:44:42.853Z,14.23
2018-05-21T05:45:42.799Z,14.17
2018-05-21T05:46:42.988Z,14.11
2018-05-21T05:47:42.722Z,14.05
2018-05-21T05:48:42.682Z,14.10
2018-05-21T05:49:42.638Z,14.08
2018-05-21T05:50:42.577Z,14.12
2018-05-21T05:51:42.521Z,14.05
2018-05-21T05:52:42.662Z,14.14
2018-05-21T05:53:42.451Z,14.07
2018-05-21T05:54:42.381Z,14.07
2018-05-21T05:55:42.338Z,13.97
2018-05-21T05:56:42.307Z,13.96
2018-05-21T05:57:42.252Z,14.03
2018-05-21T05:58:42.392Z,14.10
2018-05-21T05:59:42.155Z,14.20
2018-05-21T06:00:42.081Z,14.22
2018-05-21T06:01:42.028Z,14.23
2018-05-21T06:02:42.000Z,13.96
2018-05-21T06:03:42.020Z,14.04
2018-05-21T06:04:42.119Z,14.00
2018-05-21T06:05:41.866Z,13.99
2018-05-21T06:06:41.831Z,13.92
2018-05-21T06:07:41.751Z,14.07
2018-05-21T06:08:41.713Z,14.04
2018-05-21T06:09:41.639Z,14.03
2018-05-21T06:10:41.839Z,13.99
2018-05-21T06:11:41.581Z,13.97
2018-05-21T06:12:41.521Z,14.08
2018-05-21T06:13:41.471Z,14.11
2018-05-21T06:14:41.404Z,13.99
2018-05-21T06:15:41.351Z,14.11
2018-05-21T06:16:41.525Z,14.05
2018-05-21T06:17:41.287Z,14.10
2018-05-21T06:18:41.242Z,14.12
2018-05-21T06:19:41.195Z,14.11
2018-05-21T06:20:41.109Z,14.20
2018-05-21T06:21:41.082Z,14.11
2018-05-21T06:22:41.279Z,14.10
2018-05-21T06:23:40.984Z,14.08
2018-05-21T06:24:40.932Z,14.10
2018-05-21T06:25:40.869Z,14.17
2018-05-21T06:26:40.829Z,14.23
2018-05-21T06:27:40.782Z,14.15
2018-05-21T06:28:40.938Z,14.17
2018-05-21T06:29:40.687Z,14.11
2018-05-21T06:30:40.649Z,14.07
2018-05-21T06:31:40.579Z,14.00
2018-05-21T06:32:40.552Z,13.99
2018-05-21T06:33:40.490Z,13.97
2018-05-21T06:34:40.657Z,14.00
2018-05-21T06:35:40.412Z,13.97
2018-05-21T06:36:40.339Z,13.85
2018-05-21T06:37:40.329Z,13.71
2018-05-21T06:38:40.288Z,13.72
2018-05-21T06:39:40.457Z,13.65
2018-05-21T06:40:40.189Z,13.59
2018-05-21T06:41:40.113Z,13.54
2018-05-21T06:42:40.082Z,13.54
2018-05-21T06:43:40.002Z,13.59
2018-05-21T06:44:39.948Z,13.53
2018-05-21T06:45:40.129Z,13.50
2018-05-21T06:46:39.876Z,13.62
2018-05-21T06:47:39.883Z,13.72
2018-05-21T06:48:39.785Z,13.78
2018-05-21T06:49:39.721Z,13.79
2018-05-21T06:50:39.690Z,13.81
2018-05-21T06:51:39.812Z,13.85
2018-05-21T06:52:39.590Z,13.77
2018-05-21T06:53:39.530Z,13.90
2018-05-21T06:54:39.482Z,13.95
2018-05-21T06:55:39.476Z,13.87
2018-05-21T06:56:39.370Z,13.86
2018-05-21T06:57:39.575Z,13.78
2018-05-21T06:58:39.274Z,13.86
2018-05-21T06:59:39.228Z,13.85
2018-05-21T07:00:39.197Z,13.71
2018-05-21T07:01:39.145Z,13.67
2018-05-21T07:02:39.107Z,13.68
2018-05-21T07:03:39.247Z,13.67
2018-05-21T07:04:38.994Z,13.57
2018-05-21T07:05:38.950Z,13.56
2018-05-21T07:06:38.887Z,13.52
2018-05-21T07:07:38.840Z,13.53
2018-05-21T07:08:38.803Z,13.53
2018-05-21T07:09:38.958Z,13.50
2018-05-21T07:10:38.699Z,13.68
2018-05-21T07:11:38.685Z,13.74
2018-05-21T07:12:38.596Z,13.71
2018-05-21T07:13:38.584Z,13.67
2018-05-21T07:14:38.525Z,13.71
2018-05-21T07:15:38.664Z,13.65
2018-05-21T07:16:38.427Z,13.72
2018-05-21T07:17:38.378Z,13.83
2018-05-21T07:18:38.333Z,13.74
2018-05-21T07:19:38.258Z,13.79
2018-05-21T07:20:38.236Z,13.71
2018-05-21T07:21:38.374Z,13.72
2018-05-21T07:22:38.143Z,13.53
2018-05-21T07:23:38.085Z,13.47
2018-05-21T07:24:38.020Z,13.56
2018-05-21T07:25:37.980Z,13.70
2018-05-21T07:26:37.914Z,13.83
2018-05-21T07:27:38.078Z,13.93
2018-05-21T07:28:37.835Z,13.83
2018-05-21T07:29:37.786Z,13.81
2018-05-21T07:30:37.733Z,13.77
2018-05-21T07:31:37.841Z,13.72
2018-05-21T07:32:37.648Z,13.70
2018-05-21T07:33:37.793Z,13.72
2018-05-21T07:34:37.582Z,13.68
2018-05-21T07:35:37.480Z,13.56
2018-05-21T07:36:37.479Z,13.57
2018-05-21T07:37:37.413Z,13.65
2018-05-21T07:38:37.365Z,13.68
2018-05-21T07:39:37.514Z,13.70
2018-05-21T07:40:37.259Z,13.70
2018-05-21T07:41:37.191Z,13.41
2018-05-21T07:42:37.164Z,13.52
2018-05-21T07:43:37.123Z,13.53
2018-05-21T07:44:37.046Z,13.72
2018-05-21T07:45:37.225Z,13.71
2018-05-21T07:46:36.974Z,13.86
2018-05-21T07:47:36.931Z,13.74
2018-05-21T07:48:36.876Z,13.68
2018-05-21T07:49:36.824Z,13.77
2018-05-21T07:50:36.796Z,13.72
2018-05-21T07:51:37.041Z,13.68
2018-05-21T07:52:36.672Z,13.62
2018-05-21T07:53:36.617Z,13.60
2018-05-21T07:54:36.603Z,13.49
2018-05-21T07:55:36.511Z,13.57
2018-05-21T07:56:36.478Z,13.50
2018-05-21T07:57:36.638Z,13.60
2018-05-21T07:58:36.399Z,13.62
2018-05-21T07:59:36.361Z,13.72
2018-05-21T08:00:36.295Z,13.70
2018-05-21T08:01:36.234Z,13.70
2018-05-21T08:02:36.188Z,13.70
2018-05-21T08:03:36.333Z,13.68
2018-05-21T08:04:36.077Z,13.70
2018-05-21T08:05:36.055Z,13.63
2018-05-21T08:06:36.005Z,13.67
2018-05-21T08:07:35.944Z,13.59
2018-05-21T08:08:35.922Z,13.65
2018-05-21T08:09:36.070Z,13.59
2018-05-21T08:10:35.799Z,13.60
2018-05-21T08:11:35.753Z,13.68
2018-05-21T08:12:35.729Z,13.67
2018-05-21T08:13:35.667Z,13.68
2018-05-21T08:14:35.712Z,13.71
2018-05-21T08:15:35.758Z,13.62
2018-05-21T08:16:35.523Z,13.74
2018-05-21T08:17:35.474Z,13.74
2018-05-21T08:18:35.433Z,13.60
2018-05-21T08:19:35.379Z,13.63
2018-05-21T08:20:35.327Z,13.67
2018-05-21T08:21:35.479Z,13.49
2018-05-21T08:22:35.232Z,13.52
2018-05-21T08:23:35.172Z,13.57
2018-05-21T08:24:35.155Z,13.54
2018-05-21T08:25:35.075Z,13.57
2018-05-21T08:26:35.040Z,13.60
2018-05-21T08:27:35.185Z,13.60
2018-05-21T08:28:34.943Z,13.60
2018-05-21T08:29:34.907Z,13.63
2018-05-21T08:30:34.858Z,13.70
2018-05-21T08:31:34.806Z,13.81
2018-05-21T08:32:34.720Z,13.81
2018-05-21T08:33:34.871Z,13.78
2018-05-21T08:34:34.637Z,13.81
2018-05-21T08:35:34.591Z,13.75
2018-05-21T08:36:34.557Z,13.74
2018-05-21T08:37:34.481Z,13.75
2018-05-21T08:38:34.473Z,13.53
2018-05-21T08:39:34.607Z,13.60
2018-05-21T08:40:34.335Z,13.52
2018-05-21T08:41:34.290Z,13.37
2018-05-21T08:42:34.352Z,13.46
2018-05-21T08:43:34.198Z,13.52
2018-05-21T08:44:34.190Z,13.54
2018-05-21T08:45:34.303Z,13.65
2018-05-21T08:46:34.050Z,13.60
2018-05-21T08:47:34.007Z,13.54
2018-05-21T08:48:34.050Z,13.49
2018-05-21T08:49:33.903Z,13.50
2018-05-21T08:50:33.865Z,13.47
2018-05-21T08:51:34.027Z,13.33
2018-05-21T08:52:33.791Z,13.22
2018-05-21T08:53:33.722Z,13.22
2018-05-21T08:54:33.681Z,13.27
2018-05-21T08:55:33.630Z,13.44
2018-05-21T08:56:33.573Z,13.46
2018-05-21T08:57:33.715Z,13.30
2018-05-21T08:58:33.475Z,13.33
2018-05-21T08:59:33.424Z,13.35
2018-05-21T09:00:33.384Z,13.27
2018-05-21T09:01:33.319Z,13.31
2018-05-21T09:02:33.298Z,13.31
2018-05-21T09:03:33.443Z,13.28
2018-05-21T09:04:33.167Z,13.39
2018-05-21T09:05:33.140Z,13.50
2018-05-21T09:06:33.094Z,13.47
2018-05-21T09:07:33.061Z,13.44
2018-05-21T09:08:32.999Z,13.47
2018-05-21T09:09:33.125Z,13.54
2018-05-21T09:10:32.903Z,13.37
2018-05-21T09:11:32.859Z,13.39
2018-05-21T09:12:32.866Z,13.30
2018-05-21T09:13:32.736Z,13.33
2018-05-21T09:14:32.715Z,13.30
2018-05-21T09:15:32.847Z,13.19
2018-05-21T09:16:32.676Z,13.31
2018-05-21T09:17:32.569Z,13.49
2018-05-21T09:18:32.522Z,13.41
2018-05-21T09:19:32.466Z,13.52
2018-05-21T09:20:32.414Z,13.47
2018-05-21T09:21:32.555Z,13.33
2018-05-21T09:22:32.376Z,13.35
2018-05-21T09:23:32.265Z,13.28
2018-05-21T09:24:32.216Z,13.22
2018-05-21T09:25:32.152Z,13.09
2018-05-21T09:26:32.124Z,13.08
2018-05-21T09:27:32.253Z,12.97
2018-05-21T09:28:32.025Z,12.97
2018-05-21T09:29:32.045Z,12.87
2018-05-21T09:30:31.946Z,13.08
2018-05-21T09:31:31.868Z,13.28
2018-05-21T09:32:31.873Z,13.25
2018-05-21T09:33:31.984Z,13.30
2018-05-21T09:34:31.740Z,13.19
2018-05-21T09:35:31.712Z,13.16
2018-05-21T09:36:31.634Z,13.25
2018-05-21T09:37:31.596Z,13.22
2018-05-21T09:38:31.515Z,13.20
2018-05-21T09:39:31.694Z,13.04
2018-05-21T09:40:31.443Z,12.90
2018-05-21T09:41:31.407Z,12.97
2018-05-21T09:42:31.346Z,12.83
2018-05-21T09:43:31.283Z,12.83
2018-05-21T09:44:31.253Z,12.79
2018-05-21T09:45:31.400Z,12.75
2018-05-21T09:46:31.143Z,12.75
2018-05-21T09:47:31.080Z,12.61
2018-05-21T09:48:31.034Z,12.75
2018-05-21T09:49:30.999Z,12.82
2018-05-21T09:50:30.925Z,12.70
2018-05-21T09:51:31.090Z,12.79
2018-05-21T09:52:30.855Z,12.68
2018-05-21T09:53:30.808Z,12.75
2018-05-21T09:54:30.749Z,12.75
2018-05-21T09:55:30.707Z,12.75
2018-05-21T09:56:30.659Z,12.75
2018-05-21T09:57:30.799Z,12.58
2018-05-21T09:58:30.567Z,12.57
2018-05-21T09:59:30.491Z,12.60
2018-05-21T10:00:30.467Z,12.70
2018-05-21T10:01:30.407Z,12.73
2018-05-21T10:02:30.370Z,12.83
2018-05-21T10:03:30.523Z,12.79
2018-05-21T10:04:30.263Z,12.86
2018-05-21T10:05:30.214Z,12.95
2018-05-21T10:06:30.171Z,12.97
2018-05-21T10:07:30.147Z,13.00
2018-05-21T10:08:30.074Z,13.03
2018-05-21T10:09:30.217Z,13.12
2018-05-21T10:10:29.968Z,12.98
2018-05-21T10:11:29.927Z,13.00
2018-05-21T10:12:29.868Z,12.97
2018-05-21T10:13:29.819Z,12.98
2018-05-21T10:14:29.790Z,12.97
2018-05-21T10:15:29.934Z,12.97
2018-05-21T10:16:29.680Z,12.97
2018-05-21T10:17:29.647Z,13.03
2018-05-21T10:18:29.590Z,13.08
2018-05-21T10:19:29.584Z,13.08
2018-05-21T10:20:29.501Z,13.11
2018-05-21T10:21:29.650Z,13.18
2018-05-21T10:22:29.377Z,13.18
2018-05-21T10:23:29.335Z,13.18
2018-05-21T10:24:29.308Z,13.18
2018-05-21T10:25:29.253Z,13.30
2018-05-21T10:26:29.211Z,13.41
2018-05-21T10:27:29.349Z,13.53
2018-05-21T10:28:29.091Z,13.78
2018-05-21T10:29:29.043Z,13.96
2018-05-21T10:30:29.029Z,14.15
2018-05-21T10:31:28.994Z,14.17
2018-05-21T10:32:28.934Z,14.35
2018-05-21T10:33:29.075Z,14.63
2018-05-21T10:34:28.849Z,14.91
2018-05-21T10:35:28.804Z,15.40
2018-05-21T10:36:28.761Z,15.52
2018-05-21T10:37:28.692Z,15.64
2018-05-21T10:38:28.669Z,15.75
2018-05-21T10:39:28.816Z,16.26
2018-05-21T10:40:28.583Z,16.12
2018-05-21T10:41:28.554Z,16.50
2018-05-21T10:42:28.528Z,16.81
2018-05-21T10:43:28.488Z,17.08
2018-05-21T10:44:28.419Z,17.27
2018-05-21T10:45:28.577Z,17.49
2018-05-21T10:46:28.331Z,17.67
2018-05-21T10:47:28.328Z,18.08
2018-05-21T10:48:28.256Z,18.18
2018-05-21T10:49:28.261Z,18.15
2018-05-21T10:50:28.193Z,18.04
2018-05-21T10:51:28.414Z,18.16
2018-05-21T10:52:28.139Z,18.35
2018-05-21T10:53:28.098Z,18.77
2018-05-21T10:54:28.065Z,18.71
2018-05-21T10:55:28.019Z,18.68
2018-05-21T10:56:27.975Z,18.81
2018-05-21T10:57:28.199Z,18.99
2018-05-21T10:58:27.897Z,19.44
2018-05-21T10:59:27.876Z,19.89
2018-05-21T11:00:27.840Z,20.02
2018-05-21T11:01:27.841Z,20.19
2018-05-21T11:02:27.759Z,20.39
2018-05-21T11:03:27.940Z,20.58
2018-05-21T11:04:27.715Z,20.37
2018-05-21T11:05:27.664Z,20.16
2018-05-21T11:06:27.638Z,19.77
2018-05-21T11:07:27.598Z,19.44
2018-05-21T11:08:27.585Z,19.41
2018-05-21T11:09:27.725Z,19.30
2018-05-21T11:10:27.518Z,19.31
2018-05-21T11:11:27.471Z,19.34
2018-05-21T11:12:27.467Z,19.45
2018-05-21T11:13:27.405Z,19.64
2018-05-21T11:14:27.363Z,19.44
2018-05-21T11:15:27.503Z,19.40
2018-05-21T11:16:27.268Z,19.37
2018-05-21T11:17:27.238Z,19.19
2018-05-21T11:18:27.200Z,18.90
2018-05-21T11:19:27.156Z,18.41
2018-05-21T11:20:27.142Z,18.33
2018-05-21T11:21:27.296Z,18.43
2018-05-21T11:22:27.051Z,18.45
2018-05-21T11:23:27.010Z,18.34
2018-05-21T11:24:26.956Z,18.40
2018-05-21T11:25:26.920Z,18.37
2018-05-21T11:26:26.881Z,18.10
2018-05-21T11:27:27.053Z,18.07
2018-05-21T11:28:26.792Z,17.98
2018-05-21T11:29:26.742Z,18.01
2018-05-21T11:30:26.719Z,17.90
2018-05-21T11:31:26.668Z,17.89
2018-05-21T11:32:26.606Z,17.78
2018-05-21T11:33:26.778Z,17.83
2018-05-21T11:34:26.536Z,17.86
2018-05-21T11:35:26.486Z,17.72
2018-05-21T11:36:26.423Z,17.80
2018-05-21T11:37:26.403Z,17.82
2018-05-21T11:38:26.333Z,17.86
2018-05-21T11:39:26.413Z,17.72
2018-05-21T11:40:26.262Z,17.71
2018-05-21T11:41:26.206Z,17.64
2018-05-21T11:42:26.172Z,17.56
2018-05-21T11:43:26.112Z,17.51
2018-05-21T11:44:26.082Z,17.54
2018-05-21T11:45:26.036Z,17.38
2018-05-21T11:46:26.064Z,17.54
2018-05-21T11:47:25.942Z,17.56
2018-05-21T11:48:25.890Z,17.59
2018-05-21T11:49:25.865Z,17.63
2018-05-21T11:50:25.822Z,17.71
2018-05-21T11:51:25.755Z,17.67
2018-05-21T11:52:25.730Z,17.74
2018-05-21T11:53:25.665Z,17.72
2018-05-21T11:54:25.640Z,17.67
2018-05-21T11:55:25.584Z,17.70
2018-05-21T11:56:25.559Z,17.57
2018-05-21T11:57:25.498Z,17.59
2018-05-21T11:58:25.455Z,17.46
2018-05-21T11:59:25.404Z,17.49
2018-05-21T12:00:25.409Z,17.46
2018-05-21T12:01:25.320Z,17.42
2018-05-21T12:02:25.285Z,17.34
2018-05-21T12:03:25.251Z,17.38
2018-05-21T12:04:25.196Z,17.38
2018-05-21T12:05:25.152Z,17.46
2018-05-21T12:06:25.079Z,17.42
2018-05-21T12:07:25.060Z,17.45
2018-05-21T12:08:25.007Z,17.49
2018-05-21T12:09:24.954Z,17.64
2018-05-21T12:10:24.918Z,17.64
2018-05-21T12:11:24.866Z,17.74
2018-05-21T12:12:24.852Z,17.70
2018-05-21T12:13:24.788Z,17.87
2018-05-21T12:14:24.714Z,17.85
2018-05-21T12:15:24.717Z,17.83
2018-05-21T12:16:24.633Z,17.79
2018-05-21T12:17:24.612Z,17.57
2018-05-21T12:18:24.562Z,17.45
2018-05-21T12:19:24.504Z,17.49
2018-05-21T12:20:24.457Z,17.60
2018-05-21T12:21:24.420Z,17.59
2018-05-21T12:22:24.411Z,17.59
2018-05-21T12:23:24.338Z,17.67
2018-05-21T12:24:24.288Z,17.86
2018-05-21T12:25:24.220Z,17.85
2018-05-21T12:26:24.210Z,17.89
2018-05-21T12:27:24.160Z,17.87
2018-05-21T12:28:24.102Z,17.86
2018-05-21T12:29:24.061Z,17.59
2018-05-21T12:30:24.006Z,17.49
2018-05-21T12:31:23.980Z,17.65
2018-05-21T12:32:23.923Z,17.78
2018-05-21T12:33:23.856Z,17.68
2018-05-21T12:34:23.835Z,17.64
2018-05-21T12:35:23.772Z,17.65
2018-05-21T12:36:23.742Z,17.78
2018-05-21T12:37:23.703Z,17.71
2018-05-21T12:38:23.632Z,17.87
2018-05-21T12:39:23.600Z,17.92
2018-05-21T12:40:23.553Z,17.82
2018-05-21T12:41:23.501Z,17.89
2018-05-21T12:42:23.444Z,17.94
2018-05-21T12:43:23.415Z,17.97
2018-05-21T12:44:23.361Z,17.86
2018-05-21T12:45:23.338Z,17.87
2018-05-21T12:46:23.293Z,17.95
2018-05-21T12:47:23.254Z,18.01
2018-05-21T12:48:23.209Z,18.16
2018-05-21T12:49:23.155Z,18.10
2018-05-21T12:50:23.091Z,18.35
2018-05-21T12:51:23.085Z,18.25
2018-05-21T12:52:23.014Z,18.34